createdAt,value
2023-03-01T00:03:04.558Z,-0.21
2023-03-01T00:08:16.224Z,-0.23
2023-03-01T00:13:18.624Z,-0.21
2023-03-01T00:18:21.190Z,-0.25
2023-03-01T00:23:23.946Z,-0.22
2023-03-01T00:28:26.339Z,-0.17
2023-03-01T00:33:29.449Z,-0.20
2023-03-01T00:38:41.773Z,-0.18
2023-03-01T00:43:44.748Z,-0.22
2023-03-01T00:48:47.144Z,-0.32
2023-03-01T00:53:49.448Z,-0.31
2023-03-01T00:58:51.791Z,-0.32
2023-03-01T01:03:54.530Z,-0.30
2023-03-01T01:08:56.929Z,-0.31
2023-03-01T01:13:59.683Z,-0.38
2023-03-01T01:19:02.041Z,-0.37
2023-03-01T01:24:05.155Z,-0.36
2023-03-01T01:29:07.476Z,-0.43
2023-03-01T01:34:10.262Z,-0.44
2023-03-01T01:39:14.217Z,-0.47
2023-03-01T01:44:17.441Z,-0.47
2023-03-01T01:49:20.183Z,-0.43
2023-03-01T01:54:22.831Z,-0.41
2023-03-01T01:59:26.033Z,-0.52
2023-03-01T02:04:29.196Z,-0.53
2023-03-01T02:09:31.527Z,-0.55
2023-03-01T02:14:33.845Z,-0.50
2023-03-01T02:19:46.184Z,-0.56
2023-03-01T02:24:48.690Z,-0.48
2023-03-01T02:29:51.267Z,-0.44
2023-03-01T02:34:54.409Z,-0.45
2023-03-01T02:39:58.588Z,-0.57
2023-03-01T02:45:01.702Z,-0.57
2023-03-01T02:50:04.124Z,-0.57
2023-03-01T02:55:06.873Z,-0.64
2023-03-01T03:00:10.044Z,-0.66
2023-03-01T03:05:12.560Z,-0.73
2023-03-01T03:10:15.486Z,-0.72
2023-03-01T03:15:18.798Z,-0.78
2023-03-01T03:20:21.940Z,-0.78
2023-03-01T03:25:24.365Z,-0.81
2023-03-01T03:30:26.818Z,-0.85
2023-03-01T03:35:31.328Z,-0.85
2023-03-01T03:40:33.817Z,-0.87
2023-03-01T03:45:36.314Z,-0.91
2023-03-01T03:50:43.098Z,-0.97
2023-03-01T03:55:45.899Z,-1.09
2023-03-01T04:00:48.209Z,-1.05
2023-03-01T04:05:51.534Z,-1.13
2023-03-01T04:10:53.906Z,-1.17
2023-03-01T04:15:56.228Z,-1.16
2023-03-01T04:20:58.642Z,-1.17
2023-03-01T04:26:01.257Z,-1.23
2023-03-01T04:31:07.386Z,-1.26
2023-03-01T04:36:19.586Z,-1.31
2023-03-01T04:41:22.335Z,-1.46
2023-03-01T04:46:24.694Z,-1.48
2023-03-01T04:51:27.497Z,-1.53
2023-03-01T04:56:30.320Z,-1.47
2023-03-01T05:01:33.691Z,-1.72
2023-03-01T05:06:36.996Z,-1.81
2023-03-01T05:11:39.436Z,-1.80
2023-03-01T05:16:41.902Z,-1.90
2023-03-01T05:21:59.702Z,-1.92
2023-03-01T05:27:02.478Z,-1.94
2023-03-01T05:32:05.249Z,-2.03
2023-03-01T05:37:08.588Z,-2.05
2023-03-01T05:42:11.841Z,-1.92
2023-03-01T05:47:15.050Z,-1.95
2023-03-01T05:52:17.580Z,-1.92
2023-03-01T05:57:21.359Z,-1.86
2023-03-01T06:02:24.117Z,-1.88
2023-03-01T06:07:26.899Z,-1.84
2023-03-01T06:12:29.263Z,-1.97
2023-03-01T06:17:31.759Z,-1.93
2023-03-01T06:22:34.247Z,-2.02
2023-03-01T06:27:36.870Z,-1.95
2023-03-01T06:32:43.041Z,-1.98
2023-03-01T06:37:45.528Z,-1.85
2023-03-01T06:42:47.964Z,-1.99
2023-03-01T06:47:50.297Z,-1.89
2023-03-01T06:52:53.670Z,-1.77
2023-03-01T06:57:56.383Z,-1.63
2023-03-01T07:02:58.815Z,-1.59
2023-03-01T07:08:01.611Z,-1.69
2023-03-01T07:13:04.488Z,-1.54
2023-03-01T07:18:06.853Z,-1.48
2023-03-01T07:23:09.799Z,-1.29
2023-03-01T07:28:12.113Z,-1.43
2023-03-01T07:33:14.812Z,-1.38
2023-03-01T07:38:18.399Z,-1.31
2023-03-01T07:43:21.653Z,-1.10
2023-03-01T07:48:24.134Z,-0.96
2023-03-01T07:53:26.959Z,-0.66
2023-03-01T07:58:29.339Z,-0.82
2023-03-01T08:03:32.326Z,-0.64
2023-03-01T08:08:35.452Z,-0.51
2023-03-01T08:13:37.983Z,-0.83
2023-03-01T08:18:40.847Z,-0.74
2023-03-01T08:23:43.223Z,-0.60
2023-03-01T08:28:45.879Z,-0.41
2023-03-01T08:33:51.533Z,-0.40
2023-03-01T08:38:54.680Z,-0.53
2023-03-01T08:43:59.936Z,-0.58
2023-03-01T08:49:02.446Z,-0.33
2023-03-01T08:54:05.589Z,-0.24
2023-03-01T08:59:08.258Z,0.01
2023-03-01T09:09:12.928Z,0.04
2023-03-01T09:14:15.347Z,0.73
2023-03-01T09:19:17.855Z,0.58
2023-03-01T09:24:20.552Z,0.52
2023-03-01T09:29:23.090Z,0.41
2023-03-01T09:34:25.845Z,0.50
2023-03-01T09:39:28.257Z,0.81
2023-03-01T09:44:30.750Z,0.20
2023-03-01T09:49:33.048Z,0.35
2023-03-01T09:54:36.252Z,0.60
2023-03-01T09:59:39.910Z,0.93
2023-03-01T10:04:42.269Z,0.89
2023-03-01T10:09:44.753Z,0.99
2023-03-01T10:14:47.681Z,0.85
2023-03-01T10:19:50.038Z,0.82
2023-03-01T10:24:52.870Z,0.80
2023-03-01T10:29:56.356Z,0.93
2023-03-01T10:34:59.544Z,0.62
2023-03-01T10:40:02.368Z,0.75
2023-03-01T10:45:07.231Z,1.03
2023-03-01T10:50:10.330Z,1.30
2023-03-01T10:55:13.300Z,1.37
2023-03-01T11:00:16.587Z,1.61
2023-03-01T11:05:31.486Z,1.76
2023-03-01T11:10:35.079Z,1.32
2023-03-01T11:15:37.390Z,1.37
2023-03-01T11:20:40.169Z,1.14
2023-03-01T11:25:50.264Z,1.05
2023-03-01T11:31:08.583Z,1.29
2023-03-01T11:36:11.646Z,1.28
2023-03-01T11:41:14.496Z,1.48
2023-03-01T11:46:17.613Z,1.85
2023-03-01T11:51:20.687Z,1.90
2023-03-01T11:56:24.155Z,2.02
2023-03-01T12:01:26.736Z,1.66
2023-03-01T12:06:29.985Z,2.23
2023-03-01T12:11:33.108Z,2.52
2023-03-01T12:16:39.484Z,2.37
2023-03-01T12:21:42.332Z,2.30
2023-03-01T12:26:44.736Z,2.40
2023-03-01T12:31:47.665Z,2.59
2023-03-01T12:36:50.837Z,2.44
2023-03-01T12:41:53.978Z,2.54
2023-03-01T12:46:57.500Z,2.61
2023-03-01T12:52:01.621Z,2.60
2023-03-01T12:57:04.047Z,2.64
2023-03-01T13:02:06.813Z,2.77
2023-03-01T13:07:09.608Z,2.95
2023-03-01T13:12:19.959Z,3.09
2023-03-01T13:17:23.495Z,3.13
2023-03-01T13:22:28.588Z,3.43
2023-03-01T13:27:31.592Z,3.45
2023-03-01T13:32:43.615Z,3.53
2023-03-01T13:37:47.623Z,3.27
2023-03-01T13:43:04.229Z,3.32
2023-03-01T13:48:08.348Z,3.36
2023-03-01T13:53:11.103Z,3.42
2023-03-01T13:58:13.904Z,3.37
2023-03-01T14:03:17.041Z,3.64
2023-03-01T14:08:19.766Z,3.59
2023-03-01T14:13:22.472Z,3.69
2023-03-01T14:18:33.147Z,3.70
2023-03-01T14:23:36.629Z,3.80
2023-03-01T14:28:48.723Z,3.86
2023-03-01T14:33:51.169Z,3.89
2023-03-01T14:38:55.295Z,3.91
2023-03-01T14:43:59.074Z,4.07
2023-03-01T14:49:01.395Z,4.04
2023-03-01T14:54:03.789Z,4.09
2023-03-01T14:59:06.514Z,4.09
2023-03-01T15:04:09.686Z,4.19
2023-03-01T15:09:15.861Z,4.17
2023-03-01T15:14:20.121Z,4.36
2023-03-01T15:19:22.432Z,4.36
2023-03-01T15:24:24.936Z,4.43
2023-03-01T15:29:30.969Z,4.39
2023-03-01T15:34:34.212Z,4.50
2023-03-01T15:39:38.331Z,4.56
2023-03-01T15:44:44.182Z,4.49
2023-03-01T15:49:55.030Z,4.52
2023-03-01T15:55:07.904Z,4.44
2023-03-01T16:00:12.317Z,4.41
2023-03-01T16:05:24.781Z,4.37
2023-03-01T16:10:28.303Z,4.39
2023-03-01T16:15:32.983Z,4.35
2023-03-01T16:20:35.993Z,4.32
2023-03-01T16:25:39.456Z,4.32
2023-03-01T16:30:42.139Z,4.30
2023-03-01T16:35:45.369Z,4.17
2023-03-01T16:40:47.679Z,3.98
2023-03-01T16:45:50.411Z,3.97
2023-03-01T16:51:00.935Z,3.88
2023-03-01T16:56:04.906Z,3.64
2023-03-01T17:01:08.120Z,3.55
2023-03-01T17:06:11.827Z,3.50
2023-03-01T17:11:16.049Z,3.48
2023-03-01T17:16:18.701Z,3.49
2023-03-01T17:21:21.955Z,3.53
2023-03-01T17:26:25.241Z,3.49
2023-03-01T17:31:28.031Z,3.34
2023-03-01T17:36:30.541Z,3.39
2023-03-01T17:41:33.300Z,3.27
2023-03-01T17:46:35.950Z,3.31
2023-03-01T17:51:38.545Z,3.17
2023-03-01T17:56:42.952Z,2.88
2023-03-01T18:01:45.697Z,2.44
2023-03-01T18:06:48.237Z,2.41
2023-03-01T18:11:50.683Z,2.11
2023-03-01T18:16:54.547Z,1.92
2023-03-01T18:21:57.393Z,1.89
2023-03-01T18:26:59.796Z,1.75
2023-03-01T18:32:02.979Z,1.56
2023-03-01T18:37:09.602Z,1.47
2023-03-01T18:42:14.523Z,1.28
2023-03-01T18:47:17.289Z,1.19
2023-03-01T18:52:19.659Z,1.16
2023-03-01T18:57:22.774Z,1.28
2023-03-01T19:02:25.118Z,1.36
2023-03-01T19:07:27.771Z,1.59
2023-03-01T19:12:30.911Z,1.41
2023-03-01T19:17:34.627Z,1.59
2023-03-01T19:22:38.780Z,1.87
2023-03-01T19:27:42.011Z,1.80
2023-03-01T19:32:44.726Z,1.86
2023-03-01T19:37:47.043Z,1.89
2023-03-01T19:42:49.392Z,1.95
2023-03-01T19:47:59.958Z,1.90
2023-03-01T19:53:02.291Z,1.82
2023-03-01T19:58:06.265Z,1.82
2023-03-01T20:03:08.833Z,1.73
2023-03-01T20:08:21.172Z,1.71
2023-03-01T20:13:24.323Z,1.78
2023-03-01T20:18:26.988Z,1.74
2023-03-01T20:23:29.320Z,1.65
2023-03-01T20:28:31.953Z,1.67
2023-03-01T20:33:34.321Z,1.69
2023-03-01T20:38:36.657Z,1.55
2023-03-01T20:43:39.074Z,1.57
2023-03-01T20:48:49.112Z,1.59
2023-03-01T20:53:51.584Z,1.56
2023-03-01T20:58:54.105Z,1.46
2023-03-01T21:03:56.689Z,1.42
2023-03-01T21:08:59.382Z,1.31
2023-03-01T21:14:01.695Z,1.21
2023-03-01T21:19:05.424Z,1.14
2023-03-01T21:24:10.312Z,1.05
2023-03-01T21:29:13.083Z,1.10
2023-03-01T21:34:15.470Z,1.03
2023-03-01T21:39:18.007Z,0.93
2023-03-01T21:44:20.824Z,0.88
2023-03-01T21:49:23.253Z,0.74
2023-03-01T21:54:25.718Z,0.71
2023-03-01T21:59:29.011Z,0.65
2023-03-01T22:04:31.555Z,0.67
2023-03-01T22:09:36.063Z,0.49
2023-03-01T22:14:38.366Z,0.40
2023-03-01T22:19:40.738Z,0.19
2023-03-01T22:24:43.047Z,0.23
2023-03-01T22:29:45.844Z,0.11
2023-03-01T22:34:48.273Z,0.02
2023-03-01T22:39:50.630Z,0.07
2023-03-01T22:44:52.992Z,-0.02
2023-03-01T22:49:56.122Z,0.07
2023-03-01T22:55:08.452Z,-0.02
2023-03-01T23:00:13.314Z,-0.03
2023-03-01T23:05:15.847Z,-0.11
2023-03-01T23:10:18.336Z,-0.04
2023-03-01T23:15:21.135Z,-0.06
2023-03-01T23:20:24.279Z,-0.16
2023-03-01T23:25:26.656Z,-0.17
2023-03-01T23:30:29.099Z,-0.17
2023-03-01T23:35:31.887Z,-0.16
2023-03-01T23:40:34.376Z,-0.26
2023-03-01T23:45:37.606Z,-0.27
2023-03-01T23:50:41.924Z,-0.30
2023-03-01T23:55:45.086Z,-0.28
